Huron Regional Airport
KHON : now visible

Airfield :











YOU CAN JOIN US ON...

 
LOGIN :

Register | Disclaimer

   EN    FR    IT 

 









Legend :    VFR   Marginal VFR   IFR   Intensive IFR   Very Intensive IFR
Visi :
Ceiling :
>= 8 km
>= 3000ft
5 to 8 km
1000 to 3000 ft
1500m to 5 km
500 to 1000 ft
800 to 1500m
200 to 500 ft
< 800m
< 200 ft
Symbols :   Thunderstorms  Fog  Heavy snow  Heavy precipitations  Wind > 20 kt






- Airport Elevation : 1289 ft
- IATA code : HON


KHON - Huron Regional

CURRENT METAR :
  • 050055Z AUTO 14012KT 10SM CLR 05/M01 A2998 RMK AO2 PK WND 14028/0002 SLP167 T00501006

EXPIRED METARs :
  • 042355Z AUTO 15014G24KT 10SM CLR 06/M01 A2999 RMK AO2 PK WND 15027/2307 SLP172 T00611011 10072 20028 56012
  • 042255Z AUTO 16016G24KT 10SM CLR 07/M02 A3002 RMK AO2 PK WND 15032/2156 SLP180 T00671017

TAF KHON
Valid from the 05 at 00:00 until the 06 at 00:00 UTC


042320Z 0500/0524 16013G24KT P6SM SCT200
FM050400 16010G16KT P6SM FEW250



MET'MAP, your aeronautical weather chart ! - Copyright ORBIFLY December 2007 - Disclaimer

ORBIFLY MET'MAP TEAM :

Programming & Development : Alexandra Zaïnal
Concept & original design : Baudouin d'Aumeries
Assistance for programming : Marc-Olivier Méhu
Technical & hardware support : Manuel Goepfert

Contact : metmap@orbifly.com




SOURCES & CREDITS :

   NOAA       Earth
Advisory